Terminal Aerodrome Forecast
Issued by NWS

Home | Current Version | Previous Version | Text Only | Print | Product List | Glossary On
Versions: 1 2 3 4 5 6 7 8 9 10 11 12 13 14 15 16 17 18 19 20 21 22 23 24 25 26 27 28
543
FTUS45 KREV 282320
TAFCXP
TAF
KCXP 282320Z 2900/2924 33011G18KT P6SM VCSH BKN060
     FM290200 35007KT P6SM BKN040
     FM290700 VRB04KT P6SM SCT100
     FM291700 03008KT P6SM SCT110=

USA.gov is the U.S. government's official web portal to all federal, state and local government web resources and services.